createdAt,value
2024-04-15T00:02:27.007Z,97834.02
2024-04-15T00:04:55.011Z,97828.70
2024-04-15T00:07:22.883Z,97828.30
2024-04-15T00:09:50.941Z,97825.91
2024-04-15T00:12:18.984Z,97825.02
2024-04-15T00:14:46.849Z,97827.17
2024-04-15T00:17:14.757Z,97822.33
2024-04-15T00:19:42.773Z,97823.82
2024-04-15T00:22:10.850Z,97822.39
2024-04-15T00:24:39.101Z,97818.29
2024-04-15T00:27:07.025Z,97817.11
2024-04-15T00:29:35.107Z,97817.27
2024-04-15T00:32:03.347Z,97817.18
2024-04-15T00:34:32.934Z,97815.20
2024-04-15T00:37:01.124Z,97821.13
2024-04-15T00:39:29.236Z,97819.34
2024-04-15T00:41:57.405Z,97816.06
2024-04-15T00:44:34.942Z,97813.48
2024-04-15T00:47:04.359Z,97810.83
2024-04-15T00:49:34.971Z,97811.15
2024-04-15T00:52:04.963Z,97812.13
2024-04-15T00:54:35.190Z,97810.33
2024-04-15T00:57:04.168Z,97809.30
2024-04-15T00:59:34.518Z,97805.38
2024-04-15T01:02:02.860Z,97803.38
2024-04-15T01:04:31.026Z,97804.20
2024-04-15T01:06:59.460Z,97806.47
2024-04-15T01:09:27.336Z,97803.27
2024-04-15T01:11:55.484Z,97801.31
2024-04-15T01:14:23.426Z,97797.08
2024-04-15T01:16:51.385Z,97797.47
2024-04-15T01:19:19.536Z,97799.26
2024-04-15T01:21:47.644Z,97797.30
2024-04-15T01:24:15.849Z,97795.69
2024-04-15T01:26:50.123Z,97794.37
2024-04-15T01:29:18.007Z,97788.37
2024-04-15T01:31:45.868Z,97783.30
2024-04-15T01:34:13.867Z,97777.76
2024-04-15T01:36:42.033Z,97775.65
2024-04-15T01:39:10.669Z,97772.38
2024-04-15T01:41:39.000Z,97771.30
2024-04-15T01:44:07.340Z,97773.60
2024-04-15T01:46:35.205Z,97770.19
2024-04-15T01:49:03.644Z,97772.35
2024-04-15T01:51:31.599Z,97768.21
2024-04-15T01:54:00.143Z,97768.64
2024-04-15T01:56:28.024Z,97771.17
2024-04-15T01:58:55.969Z,97774.77
2024-04-15T02:01:23.963Z,97775.06
2024-04-15T02:03:52.268Z,97773.38
2024-04-15T02:06:20.275Z,97764.45
2024-04-15T02:08:48.388Z,97766.40
2024-04-15T02:11:16.215Z,97762.80
2024-04-15T02:13:44.306Z,97760.86
2024-04-15T02:16:12.387Z,97760.09
2024-04-15T02:18:40.808Z,97754.46
2024-04-15T02:21:09.003Z,97750.59
2024-04-15T02:23:37.150Z,97743.92
2024-04-15T02:26:05.042Z,97742.84
2024-04-15T02:28:33.062Z,97735.92
2024-04-15T02:31:01.824Z,97738.13
2024-04-15T02:33:30.138Z,97740.43
2024-04-15T02:35:58.284Z,97734.08
2024-04-15T02:38:26.363Z,97727.86
2024-04-15T02:40:56.064Z,97724.83
2024-04-15T02:43:24.311Z,97722.15
2024-04-15T02:45:52.188Z,97718.05
2024-04-15T02:48:20.231Z,97720.76
2024-04-15T02:50:48.457Z,97720.80
2024-04-15T02:53:16.422Z,97720.88
2024-04-15T02:55:44.296Z,97719.89
2024-04-15T02:58:12.323Z,97720.00
2024-04-15T03:00:40.601Z,97717.33
2024-04-15T03:03:08.619Z,97716.71
2024-04-15T03:05:46.769Z,97714.06
2024-04-15T03:08:14.828Z,97716.87
2024-04-15T03:10:42.855Z,97720.52
2024-04-15T03:13:10.876Z,97721.65
2024-04-15T03:15:38.937Z,97723.48
2024-04-15T03:18:06.899Z,97726.48
2024-04-15T03:20:35.344Z,97727.08
2024-04-15T03:23:03.864Z,97726.38
2024-04-15T03:25:31.701Z,97718.48
2024-04-15T03:27:59.784Z,97714.56
2024-04-15T03:30:27.911Z,97715.95
2024-04-15T03:32:56.207Z,97717.21
2024-04-15T03:35:24.333Z,97721.47
2024-04-15T03:37:52.145Z,97716.30
2024-04-15T03:40:20.087Z,97721.55
2024-04-15T03:42:49.345Z,97722.79
2024-04-15T03:45:18.101Z,97719.19
2024-04-15T03:47:46.618Z,97719.81
2024-04-15T03:50:14.786Z,97718.20
2024-04-15T03:52:42.654Z,97721.77
2024-04-15T03:55:10.574Z,97722.17
2024-04-15T03:57:39.398Z,97721.17
2024-04-15T04:00:08.590Z,97720.73
2024-04-15T04:02:36.660Z,97718.86
2024-04-15T04:05:06.568Z,97715.20
2024-04-15T04:07:38.764Z,97712.73
2024-04-15T04:10:09.753Z,97711.98
2024-04-15T04:12:37.832Z,97710.00
2024-04-15T04:15:06.439Z,97710.77
2024-04-15T04:17:34.526Z,97715.45
2024-04-15T04:20:03.011Z,97713.84
2024-04-15T04:22:31.424Z,97707.06
2024-04-15T04:24:59.546Z,97705.11
2024-04-15T04:27:28.503Z,97705.67
2024-04-15T04:29:56.690Z,97705.86
2024-04-15T04:32:25.087Z,97703.84
2024-04-15T04:34:53.274Z,97702.33
2024-04-15T04:37:21.194Z,97700.83
2024-04-15T04:39:51.794Z,97694.02
2024-04-15T04:42:19.882Z,97691.69
2024-04-15T04:44:48.060Z,97688.55
2024-04-15T04:47:17.188Z,97685.91
2024-04-15T04:49:45.397Z,97680.64
2024-04-15T04:52:13.442Z,97683.89
2024-04-15T04:54:41.608Z,97674.59
2024-04-15T04:57:10.020Z,97674.92
2024-04-15T04:59:38.891Z,97670.34
2024-04-15T05:02:08.004Z,97668.36
2024-04-15T05:04:36.421Z,97669.06
2024-04-15T05:07:04.714Z,97668.92
2024-04-15T05:09:32.929Z,97666.68
2024-04-15T05:12:00.950Z,97656.55
2024-04-15T05:14:28.802Z,97652.41
2024-04-15T05:16:56.664Z,97651.77
2024-04-15T05:19:24.908Z,97650.67
2024-04-15T05:21:53.271Z,97649.55
2024-04-15T05:24:21.166Z,97650.05
2024-04-15T05:26:49.065Z,97644.34
2024-04-15T05:29:17.400Z,97645.20
2024-04-15T05:31:45.478Z,97649.42
2024-04-15T05:34:13.671Z,97642.61
2024-04-15T05:36:41.937Z,97637.00
2024-04-15T05:39:09.946Z,97632.00
2024-04-15T05:41:37.901Z,97625.17
2024-04-15T05:44:07.705Z,97623.06
2024-04-15T05:46:47.744Z,97623.38
2024-04-15T05:49:15.798Z,97618.29
2024-04-15T05:51:44.970Z,97616.85
2024-04-15T05:54:13.455Z,97614.01
2024-04-15T05:56:41.683Z,97613.73
2024-04-15T05:59:09.822Z,97608.52
2024-04-15T06:01:37.884Z,97607.17
2024-04-15T06:04:07.024Z,97604.52
2024-04-15T06:06:35.179Z,97605.89
2024-04-15T06:09:03.455Z,97601.79
2024-04-15T06:11:31.669Z,97600.22
2024-04-15T06:13:59.793Z,97598.39
2024-04-15T06:16:27.962Z,97592.30
2024-04-15T06:18:55.998Z,97583.50
2024-04-15T06:21:24.216Z,97583.64
2024-04-15T06:23:52.024Z,97578.04
2024-04-15T06:26:20.121Z,97570.83
2024-04-15T06:28:48.144Z,97563.83
2024-04-15T06:31:16.263Z,97560.51
2024-04-15T06:33:44.262Z,97554.58
2024-04-15T06:36:12.569Z,97550.76
2024-04-15T06:38:40.425Z,97547.95
2024-04-15T06:41:08.492Z,97547.33
2024-04-15T06:43:36.858Z,97541.91
2024-04-15T06:46:04.938Z,97541.24
2024-04-15T06:48:33.228Z,97541.23
2024-04-15T06:51:02.037Z,97539.16
2024-04-15T06:53:30.163Z,97538.39
2024-04-15T06:55:58.310Z,97535.67
2024-04-15T06:58:27.808Z,97533.94
2024-04-15T07:00:58.994Z,97533.36
2024-04-15T07:03:27.252Z,97534.75
2024-04-15T07:05:55.539Z,97531.65
2024-04-15T07:08:23.443Z,97527.96
2024-04-15T07:10:53.060Z,97525.63
2024-04-15T07:13:21.053Z,97520.51
2024-04-15T07:15:49.850Z,97517.48
2024-04-15T07:18:17.924Z,97514.08
2024-04-15T07:20:47.376Z,97507.61
2024-04-15T07:23:15.417Z,97503.66
2024-04-15T07:25:43.534Z,97498.61
2024-04-15T07:28:11.489Z,97492.15
2024-04-15T07:30:39.521Z,97488.02
2024-04-15T07:33:07.955Z,97484.79
2024-04-15T07:35:37.139Z,97482.42
2024-04-15T07:38:05.470Z,97480.77
2024-04-15T07:40:33.515Z,97481.70
2024-04-15T07:43:01.994Z,97479.19
2024-04-15T07:45:30.073Z,97479.56
2024-04-15T07:47:57.990Z,97479.41
2024-04-15T07:50:27.529Z,97474.73
2024-04-15T07:52:55.724Z,97466.63
2024-04-15T07:55:24.032Z,97458.17
2024-04-15T07:57:52.236Z,97457.42
2024-04-15T08:00:20.535Z,97451.36
2024-04-15T08:02:48.907Z,97448.95
2024-04-15T08:05:19.307Z,97444.95
2024-04-15T08:07:47.366Z,97436.96
2024-04-15T08:10:15.922Z,97434.48
2024-04-15T08:12:46.255Z,97434.73
2024-04-15T08:15:14.879Z,97429.55
2024-04-15T08:17:44.198Z,97429.27
2024-04-15T08:20:12.340Z,97429.77
2024-04-15T08:22:42.006Z,97427.54
2024-04-15T08:25:10.350Z,97426.27
2024-04-15T08:27:38.698Z,97425.98
2024-04-15T08:30:07.925Z,97426.73
2024-04-15T08:32:37.597Z,97421.89
2024-04-15T08:35:06.177Z,97416.15
2024-04-15T08:37:34.181Z,97416.33
2024-04-15T08:40:02.260Z,97417.13
2024-04-15T08:42:54.538Z,97412.71
2024-04-15T08:45:25.028Z,97408.51
2024-04-15T08:47:54.804Z,97402.31
2024-04-15T08:50:24.335Z,97399.58
2024-04-15T08:52:54.886Z,97393.05
2024-04-15T08:55:24.858Z,97390.36
2024-04-15T08:57:54.068Z,97389.30
2024-04-15T09:00:23.418Z,97386.76
2024-04-15T09:02:55.223Z,97380.46
2024-04-15T09:05:23.655Z,97379.70
2024-04-15T09:07:51.921Z,97383.55
2024-04-15T09:10:20.474Z,97379.05
2024-04-15T09:12:49.528Z,97367.32
2024-04-15T09:15:23.904Z,97359.18
2024-04-15T09:17:53.785Z,97353.66
2024-04-15T09:20:34.943Z,97348.27
2024-04-15T09:23:11.304Z,97344.08
2024-04-15T09:25:39.822Z,97341.77
2024-04-15T09:28:08.011Z,97339.92
2024-04-15T09:30:36.088Z,97334.48
2024-04-15T09:33:06.771Z,97330.75
2024-04-15T09:35:35.037Z,97332.67
2024-04-15T09:38:04.531Z,97326.15
2024-04-15T09:40:34.745Z,97322.09
2024-04-15T09:43:04.400Z,97320.30
2024-04-15T09:45:33.075Z,97313.30
2024-04-15T09:48:01.976Z,97310.84
2024-04-15T09:50:33.061Z,97311.55
2024-04-15T09:53:02.468Z,97308.85
2024-04-15T09:55:35.001Z,97302.86
2024-04-15T09:58:04.688Z,97297.64
2024-04-15T10:00:36.370Z,97293.63
2024-04-15T10:03:14.606Z,97292.89
2024-04-15T10:05:45.691Z,97289.45
2024-04-15T10:08:14.910Z,97294.20
2024-04-15T10:10:43.916Z,97287.95
2024-04-15T10:13:12.483Z,97281.09
2024-04-15T10:15:41.230Z,97271.64
2024-04-15T10:18:13.714Z,97266.80
2024-04-15T10:20:44.058Z,97262.41
2024-04-15T10:23:16.920Z,97258.48
2024-04-15T10:25:45.314Z,97250.55
2024-04-15T10:28:16.207Z,97245.86
2024-04-15T10:30:48.225Z,97239.59
2024-04-15T10:33:21.223Z,97241.02
2024-04-15T10:35:53.285Z,97234.83
2024-04-15T10:38:21.664Z,97224.50
2024-04-15T10:40:50.270Z,97210.19
2024-04-15T10:43:20.096Z,97208.44
2024-04-15T10:45:49.623Z,97202.66
2024-04-15T10:48:18.207Z,97194.63
2024-04-15T10:50:46.614Z,97188.06
2024-04-15T10:53:16.290Z,97180.16
2024-04-15T10:55:44.506Z,97174.70
2024-04-15T10:58:13.993Z,97168.55
2024-04-15T11:00:45.930Z,97164.36
2024-04-15T11:03:14.373Z,97159.39
2024-04-15T11:05:44.270Z,97160.02
2024-04-15T11:08:14.887Z,97153.23
2024-04-15T11:10:43.931Z,97142.50
2024-04-15T11:13:12.498Z,97142.04
2024-04-15T11:15:41.511Z,97136.30
2024-04-15T11:18:16.910Z,97127.74
2024-04-15T11:20:45.259Z,97123.08
2024-04-15T11:23:14.499Z,97113.73
2024-04-15T11:25:45.021Z,97106.59
2024-04-15T11:28:17.832Z,97099.39
2024-04-15T11:30:48.279Z,97094.50
2024-04-15T11:33:17.600Z,97089.49
2024-04-15T11:35:50.067Z,97084.59
2024-04-15T11:38:21.519Z,97078.20
2024-04-15T11:40:52.180Z,97072.91
2024-04-15T11:43:21.499Z,97062.77
2024-04-15T11:45:57.618Z,97054.48
2024-04-15T11:48:26.620Z,97049.39
2024-04-15T11:50:56.134Z,97040.47
2024-04-15T11:53:27.071Z,97034.09
2024-04-15T11:55:55.725Z,97019.44
2024-04-15T11:58:24.294Z,97019.77
2024-04-15T12:00:53.535Z,97021.54
2024-04-15T12:03:22.459Z,97014.73
2024-04-15T12:05:54.396Z,97008.17
2024-04-15T12:08:23.211Z,97002.02
2024-04-15T12:10:53.356Z,96996.83
2024-04-15T12:13:21.374Z,96983.72
2024-04-15T12:15:49.890Z,96979.36
2024-04-15T12:18:17.928Z,96980.49
2024-04-15T12:20:46.004Z,96976.31
2024-04-15T12:23:14.275Z,96968.31
2024-04-15T12:25:42.362Z,96967.02
2024-04-15T12:28:10.871Z,96960.44
2024-04-15T12:30:39.341Z,96945.14
2024-04-15T12:33:07.606Z,96948.13
2024-04-15T12:35:35.761Z,96942.23
2024-04-15T12:38:04.078Z,96933.48
2024-04-15T12:40:32.241Z,96927.33
2024-04-15T12:43:00.554Z,96925.40
2024-04-15T12:45:28.592Z,96921.23
2024-04-15T12:47:56.754Z,96910.81
2024-04-15T12:50:25.550Z,96910.35
2024-04-15T12:52:54.307Z,96907.81
2024-04-15T12:55:22.644Z,96897.98
2024-04-15T12:57:51.036Z,96893.34
2024-04-15T13:00:19.623Z,96886.42
2024-04-15T13:02:47.841Z,96874.55
2024-04-15T13:05:16.170Z,96868.34
2024-04-15T13:07:44.402Z,96865.21
2024-04-15T13:10:13.782Z,96862.70
2024-04-15T13:12:46.047Z,96861.48
2024-04-15T13:15:14.091Z,96855.79
2024-04-15T13:17:42.169Z,96851.10
2024-04-15T13:20:10.778Z,96844.61
2024-04-15T13:22:39.218Z,96845.78
2024-04-15T13:25:08.643Z,96845.27
2024-04-15T13:27:39.319Z,96839.61
2024-04-15T13:30:09.961Z,96830.95
2024-04-15T13:32:39.433Z,96825.73
2024-04-15T13:35:08.215Z,96825.23
2024-04-15T13:37:36.501Z,96820.63
2024-04-15T13:40:05.851Z,96809.64
2024-04-15T13:42:34.079Z,96811.35
2024-04-15T13:45:02.287Z,96806.30
2024-04-15T13:47:30.531Z,96811.11
2024-04-15T13:49:58.490Z,96811.53
2024-04-15T13:52:26.603Z,96808.60
2024-04-15T13:54:54.957Z,96803.77
2024-04-15T13:57:23.218Z,96803.05
2024-04-15T13:59:51.461Z,96796.98
2024-04-15T14:02:21.711Z,96794.27
2024-04-15T14:04:50.997Z,96786.13
2024-04-15T14:07:19.073Z,96784.87
2024-04-15T14:09:47.467Z,96782.29
2024-04-15T14:12:15.405Z,96780.20
2024-04-15T14:14:43.920Z,96778.58
2024-04-15T14:17:13.458Z,96774.55
2024-04-15T14:19:41.677Z,96772.98
2024-04-15T14:22:09.958Z,96768.91
2024-04-15T14:24:41.588Z,96768.80
2024-04-15T14:27:10.776Z,96764.08
2024-04-15T14:29:39.946Z,96760.04
2024-04-15T14:32:07.876Z,96760.36
2024-04-15T14:34:36.031Z,96753.42
2024-04-15T14:37:04.774Z,96756.55
2024-04-15T14:39:32.871Z,96750.81
2024-04-15T14:42:00.855Z,96746.67
2024-04-15T14:44:28.876Z,96748.38
2024-04-15T14:46:56.747Z,96747.99
2024-04-15T14:49:28.175Z,96746.02
2024-04-15T14:51:57.414Z,96747.48
2024-04-15T14:54:25.665Z,96742.69
2024-04-15T14:56:54.283Z,96738.52
2024-04-15T14:59:22.713Z,96738.81
2024-04-15T15:01:50.836Z,96741.16
2024-04-15T15:04:19.510Z,96741.54
2024-04-15T15:06:47.685Z,96740.89
2024-04-15T15:09:15.850Z,96750.23
2024-04-15T15:11:43.969Z,96749.16
2024-04-15T15:14:12.112Z,96746.64
2024-04-15T15:16:40.766Z,96748.21
2024-04-15T15:19:09.771Z,96749.42
2024-04-15T15:21:38.204Z,96745.47
2024-04-15T15:24:06.163Z,96743.89
2024-04-15T15:26:38.605Z,96740.80
2024-04-15T15:29:15.307Z,96741.64
2024-04-15T15:31:43.703Z,96743.29
2024-04-15T15:34:11.736Z,96743.39
2024-04-15T15:36:40.601Z,96741.23
2024-04-15T15:39:09.367Z,96742.17
2024-04-15T15:41:37.894Z,96740.94
2024-04-15T15:44:05.781Z,96736.98
2024-04-15T15:46:34.131Z,96737.81
2024-04-15T15:49:02.196Z,96740.88
2024-04-15T15:51:30.434Z,96737.77
2024-04-15T15:53:58.598Z,96739.55
2024-04-15T15:56:26.626Z,96741.60
2024-04-15T15:58:54.983Z,96741.81
2024-04-15T16:01:23.064Z,96743.65
2024-04-15T16:03:51.394Z,96743.80
2024-04-15T16:06:19.578Z,96745.02
2024-04-15T16:08:47.663Z,96743.32
2024-04-15T16:11:16.298Z,96745.59
2024-04-15T16:13:45.715Z,96745.63
2024-04-15T16:16:13.983Z,96751.56
2024-04-15T16:18:42.120Z,96750.14
2024-04-15T16:21:10.290Z,96748.30
2024-04-15T16:23:38.144Z,96751.29
2024-04-15T16:26:06.262Z,96747.58
2024-04-15T16:28:35.005Z,96749.55
2024-04-15T16:31:05.349Z,96745.81
2024-04-15T16:33:33.603Z,96744.25
2024-04-15T16:36:04.214Z,96747.18
2024-04-15T16:38:33.098Z,96750.66
2024-04-15T16:41:01.535Z,96756.23
2024-04-15T16:43:29.555Z,96753.61
2024-04-15T16:45:57.882Z,96752.90
2024-04-15T16:48:26.192Z,96757.73
2024-04-15T16:50:54.979Z,96758.80
2024-04-15T16:53:23.394Z,96759.83
2024-04-15T16:55:52.850Z,96759.50
2024-04-15T16:58:24.659Z,96759.70
2024-04-15T17:00:55.153Z,96754.40
2024-04-15T17:03:23.866Z,96753.47
2024-04-15T17:05:52.280Z,96755.76
2024-04-15T17:08:20.425Z,96758.10
2024-04-15T17:10:48.590Z,96756.06
2024-04-15T17:13:16.869Z,96755.77
2024-04-15T17:15:45.509Z,96759.88
2024-04-15T17:18:13.732Z,96766.48
2024-04-15T17:20:43.161Z,96765.37
2024-04-15T17:23:11.214Z,96766.27
2024-04-15T17:25:39.509Z,96764.16
2024-04-15T17:28:11.690Z,96758.54
2024-04-15T17:30:39.885Z,96755.02
2024-04-15T17:33:08.879Z,96751.44
2024-04-15T17:35:36.785Z,96752.36
2024-04-15T17:38:05.137Z,96756.07
2024-04-15T17:40:33.217Z,96757.07
2024-04-15T17:43:01.840Z,96759.41
2024-04-15T17:45:30.247Z,96756.56
2024-04-15T17:47:58.594Z,96758.67
2024-04-15T17:50:27.185Z,96756.19
2024-04-15T17:52:55.382Z,96752.16
2024-04-15T17:55:24.026Z,96749.35
2024-04-15T17:57:52.990Z,96747.64
2024-04-15T18:00:21.088Z,96745.81
2024-04-15T18:02:49.407Z,96745.86
2024-04-15T18:05:18.210Z,96744.51
2024-04-15T18:07:48.412Z,96738.60
2024-04-15T18:10:18.431Z,96739.88
2024-04-15T18:12:48.214Z,96736.27
2024-04-15T18:15:16.668Z,96738.39
2024-04-15T18:17:45.234Z,96741.05
2024-04-15T18:20:14.492Z,96745.49
2024-04-15T18:22:42.715Z,96744.34
2024-04-15T18:25:11.249Z,96745.64
2024-04-15T18:27:40.362Z,96746.23
2024-04-15T18:30:09.587Z,96745.05
2024-04-15T18:32:37.925Z,96747.66
2024-04-15T18:35:06.839Z,96752.33
2024-04-15T18:37:35.244Z,96753.59
2024-04-15T18:40:03.415Z,96750.74
2024-04-15T18:42:32.488Z,96751.17
2024-04-15T18:45:04.650Z,96753.83
2024-04-15T18:47:34.525Z,96750.71
2024-04-15T18:50:02.793Z,96748.04
2024-04-15T18:52:31.447Z,96746.02
2024-04-15T18:54:59.942Z,96748.03
2024-04-15T18:57:28.328Z,96745.93
2024-04-15T18:59:56.565Z,96746.08
2024-04-15T19:02:24.785Z,96741.16
2024-04-15T19:04:52.779Z,96738.46
2024-04-15T19:07:20.793Z,96738.55
2024-04-15T19:09:48.945Z,96738.03
2024-04-15T19:12:18.116Z,96737.13
2024-04-15T19:14:58.464Z,96737.17
2024-04-15T19:17:34.028Z,96739.54
2024-04-15T19:20:02.364Z,96735.18
2024-04-15T19:22:30.700Z,96732.95
2024-04-15T19:24:58.969Z,96731.95
2024-04-15T19:27:27.267Z,96730.33
2024-04-15T19:29:55.742Z,96724.00
2024-04-15T19:32:24.408Z,96720.05
2024-04-15T19:34:52.751Z,96718.17
2024-04-15T19:37:21.205Z,96711.39
2024-04-15T19:39:49.572Z,96714.64
2024-04-15T19:42:18.944Z,96711.36
2024-04-15T19:44:46.807Z,96709.86
2024-04-15T19:47:14.987Z,96707.34
2024-04-15T19:49:43.029Z,96705.05
2024-04-15T19:52:11.578Z,96703.51
2024-04-15T19:54:39.790Z,96700.45
2024-04-15T19:57:07.910Z,96695.45
2024-04-15T19:59:35.941Z,96691.89
2024-04-15T20:02:04.688Z,96695.58
2024-04-15T20:04:32.720Z,96692.26
2024-04-15T20:07:00.918Z,96688.52
2024-04-15T20:09:28.840Z,96687.53
2024-04-15T20:11:56.743Z,96683.23
2024-04-15T20:14:24.833Z,96681.02
2024-04-15T20:17:00.325Z,96683.53
2024-04-15T20:19:30.350Z,96677.16
2024-04-15T20:21:58.619Z,96678.38
2024-04-15T20:24:26.808Z,96676.53
2024-04-15T20:26:55.030Z,96677.59
2024-04-15T20:29:23.919Z,96681.39
2024-04-15T20:31:51.795Z,96683.51
2024-04-15T20:34:20.073Z,96682.71
2024-04-15T20:36:48.230Z,96680.73
2024-04-15T20:39:16.317Z,96675.82
2024-04-15T20:41:44.166Z,96675.55
2024-04-15T20:44:12.138Z,96672.54
2024-04-15T20:46:40.597Z,96670.66
2024-04-15T20:49:08.773Z,96666.98
2024-04-15T20:51:36.772Z,96665.59
2024-04-15T20:54:04.832Z,96663.83
2024-04-15T20:56:33.117Z,96662.16
2024-04-15T20:59:01.187Z,96663.71
2024-04-15T21:01:29.489Z,96664.17
2024-04-15T21:03:58.399Z,96666.94
2024-04-15T21:06:26.644Z,96666.12
2024-04-15T21:08:56.091Z,96669.38
2024-04-15T21:11:23.976Z,96665.23
2024-04-15T21:13:53.471Z,96666.38
2024-04-15T21:16:21.307Z,96666.56
2024-04-15T21:18:50.124Z,96668.35
2024-04-15T21:21:18.052Z,96665.20
2024-04-15T21:23:45.875Z,96660.06
2024-04-15T21:26:14.167Z,96660.61
2024-04-15T21:28:42.154Z,96659.53
2024-04-15T21:31:10.145Z,96658.27
2024-04-15T21:33:38.226Z,96653.39
2024-04-15T21:36:08.426Z,96650.40
2024-04-15T21:38:36.393Z,96648.54
2024-04-15T21:41:04.748Z,96642.80
2024-04-15T21:43:32.949Z,96641.31
2024-04-15T21:46:00.822Z,96636.08
2024-04-15T21:48:29.070Z,96635.45
2024-04-15T21:50:57.323Z,96632.98
2024-04-15T21:53:25.728Z,96633.18
2024-04-15T21:55:54.095Z,96632.66
2024-04-15T21:58:22.111Z,96632.01
2024-04-15T22:00:50.505Z,96628.04
2024-04-15T22:03:18.688Z,96625.65
2024-04-15T22:05:46.951Z,96624.42
2024-04-15T22:08:14.894Z,96621.48
2024-04-15T22:10:42.979Z,96619.63
2024-04-15T22:13:11.006Z,96619.80
2024-04-15T22:15:39.289Z,96618.02
2024-04-15T22:18:08.190Z,96616.23
2024-04-15T22:20:36.153Z,96617.41
2024-04-15T22:23:04.770Z,96620.36
2024-04-15T22:25:33.191Z,96622.64
2024-04-15T22:28:01.266Z,96624.71
2024-04-15T22:30:29.277Z,96623.39
2024-04-15T22:32:57.471Z,96622.13
2024-04-15T22:35:25.914Z,96617.64
2024-04-15T22:37:54.035Z,96617.45
2024-04-15T22:40:22.679Z,96616.36
2024-04-15T22:42:52.703Z,96614.52
2024-04-15T22:45:20.655Z,96611.52
2024-04-15T22:47:48.701Z,96605.87
2024-04-15T22:50:16.943Z,96603.58
2024-04-15T22:52:44.739Z,96605.52
2024-04-15T22:55:12.567Z,96597.98
2024-04-15T22:57:41.015Z,96595.57
2024-04-15T23:00:09.745Z,96593.42
2024-04-15T23:02:37.633Z,96591.48
2024-04-15T23:05:06.025Z,96594.05
2024-04-15T23:07:34.259Z,96596.40
2024-04-15T23:10:02.378Z,96599.06
2024-04-15T23:12:30.613Z,96596.35
2024-04-15T23:14:58.546Z,96593.73
2024-04-15T23:17:26.456Z,96595.60
2024-04-15T23:19:54.487Z,96589.60
2024-04-15T23:22:22.358Z,96586.39
2024-04-15T23:24:50.318Z,96583.89
2024-04-15T23:27:18.337Z,96577.36
2024-04-15T23:29:46.425Z,96571.91
2024-04-15T23:32:14.377Z,96571.01
2024-04-15T23:34:42.174Z,96568.33
2024-04-15T23:37:10.246Z,96566.10
2024-04-15T23:39:38.359Z,96570.41
2024-04-15T23:42:06.167Z,96574.13
2024-04-15T23:44:34.101Z,96570.23
2024-04-15T23:47:20.767Z,96566.28
2024-04-15T23:50:07.692Z,96563.11
2024-04-15T23:52:54.576Z,96569.28
2024-04-15T23:55:41.307Z,96568.58
2024-04-15T23:58:10.529Z,96566.61
